createdAt,value
2023-05-21T00:02:23.537Z,100879.81
2023-05-21T00:04:51.952Z,100881.72
2023-05-21T00:07:21.043Z,100876.84
2023-05-21T00:09:48.763Z,100883.34
2023-05-21T00:12:16.473Z,100877.91
2023-05-21T00:14:44.245Z,100878.72
2023-05-21T00:17:11.941Z,100877.66
2023-05-21T00:19:39.881Z,100881.19
2023-05-21T00:22:07.575Z,100871.38
2023-05-21T00:24:36.628Z,100875.13
2023-05-21T00:27:04.499Z,100858.28
2023-05-21T00:29:32.186Z,100866.13
2023-05-21T00:31:59.959Z,100869.16
2023-05-21T00:34:27.647Z,100858.31
2023-05-21T00:36:55.843Z,100853.38
2023-05-21T00:39:23.555Z,100861.50
2023-05-21T00:41:52.626Z,100851.47
2023-05-21T00:44:20.582Z,100846.34
2023-05-21T00:46:53.565Z,100852.72
2023-05-21T00:49:22.415Z,100853.88
2023-05-21T00:51:50.189Z,100854.94
2023-05-21T00:54:17.871Z,100845.25
2023-05-21T00:56:45.559Z,100845.44
2023-05-21T00:59:14.825Z,100851.69
2023-05-21T01:01:43.657Z,100826.44
2023-05-21T01:04:11.482Z,100829.34
2023-05-21T01:06:39.340Z,100821.78
2023-05-21T01:09:07.336Z,100817.94
2023-05-21T01:11:40.045Z,100821.06
2023-05-21T01:14:09.455Z,100817.72
2023-05-21T01:16:40.992Z,100820.16
2023-05-21T01:19:11.715Z,100823.00
2023-05-21T01:21:43.067Z,100811.72
2023-05-21T01:24:12.210Z,100815.25
2023-05-21T01:26:42.645Z,100810.97
2023-05-21T01:29:13.172Z,100803.31
2023-05-21T01:31:55.444Z,100811.34
2023-05-21T01:34:28.000Z,100811.03
2023-05-21T01:37:00.818Z,100808.38
2023-05-21T01:39:33.663Z,100793.50
2023-05-21T01:42:01.782Z,100797.56
2023-05-21T01:44:29.750Z,100803.31
2023-05-21T01:46:58.136Z,100816.16
2023-05-21T01:49:26.046Z,100801.09
2023-05-21T01:51:53.928Z,100796.78
2023-05-21T01:54:22.007Z,100793.25
2023-05-21T01:56:51.105Z,100796.22
2023-05-21T01:59:20.242Z,100801.66
2023-05-21T02:01:47.995Z,100809.72
2023-05-21T02:04:15.736Z,100810.31
2023-05-21T02:06:44.420Z,100799.72
2023-05-21T02:09:12.082Z,100788.03
2023-05-21T02:11:39.748Z,100797.31
2023-05-21T02:14:10.373Z,100812.56
2023-05-21T02:16:38.539Z,100799.13
2023-05-21T02:19:06.757Z,100792.31
2023-05-21T02:21:34.522Z,100801.84
2023-05-21T02:24:02.269Z,100790.19
2023-05-21T02:26:30.106Z,100795.47
2023-05-21T02:28:58.102Z,100796.44
2023-05-21T02:31:27.326Z,100785.25
2023-05-21T02:33:55.021Z,100793.63
2023-05-21T02:36:25.217Z,100783.16
2023-05-21T02:38:53.151Z,100789.66
2023-05-21T02:41:21.187Z,100790.22
2023-05-21T02:43:48.917Z,100796.72
2023-05-21T02:46:16.639Z,100781.22
2023-05-21T02:48:45.794Z,100787.31
2023-05-21T02:51:19.652Z,100784.59
2023-05-21T02:53:47.340Z,100784.25
2023-05-21T02:56:15.024Z,100770.63
2023-05-21T02:58:42.786Z,100767.34
2023-05-21T03:01:10.656Z,100767.38
2023-05-21T03:03:38.437Z,100779.03
2023-05-21T03:06:10.087Z,100774.00
2023-05-21T03:08:37.764Z,100760.56
2023-05-21T03:11:05.876Z,100753.78
2023-05-21T03:13:33.484Z,100757.03
2023-05-21T03:16:01.215Z,100767.38
2023-05-21T03:18:29.052Z,100766.25
2023-05-21T03:20:58.946Z,100768.56
2023-05-21T03:23:28.058Z,100765.19
2023-05-21T03:25:55.677Z,100755.94
2023-05-21T03:28:23.332Z,100756.72
2023-05-21T03:30:51.084Z,100766.00
2023-05-21T03:33:18.752Z,100778.09
2023-05-21T03:35:46.391Z,100755.66
2023-05-21T03:38:14.096Z,100773.69
2023-05-21T03:40:43.254Z,100774.31
2023-05-21T03:43:10.852Z,100768.44
2023-05-21T03:48:06.602Z,100754.84
2023-05-21T03:50:34.323Z,100764.13
2023-05-21T03:53:02.107Z,100749.94
2023-05-21T03:55:29.885Z,100751.59
2023-05-21T03:57:58.925Z,100769.81
2023-05-21T04:00:26.578Z,100757.56
2023-05-21T04:02:54.463Z,100768.47
2023-05-21T04:05:22.292Z,100770.88
2023-05-21T04:07:50.047Z,100769.56
2023-05-21T04:10:17.797Z,100777.53
2023-05-21T04:12:46.117Z,100770.13
2023-05-21T04:15:18.785Z,100768.47
2023-05-21T04:17:46.890Z,100781.53
2023-05-21T04:20:16.862Z,100782.16
2023-05-21T04:22:44.638Z,100784.16
2023-05-21T04:25:12.286Z,100792.88
2023-05-21T04:27:40.219Z,100772.28
2023-05-21T04:30:08.640Z,100775.00
2023-05-21T04:32:38.567Z,100786.69
2023-05-21T04:35:07.088Z,100767.94
2023-05-21T04:37:36.253Z,100783.16
2023-05-21T04:40:04.385Z,100776.59
2023-05-21T04:42:33.077Z,100778.84
2023-05-21T04:45:00.781Z,100788.59
2023-05-21T04:47:30.414Z,100776.06
2023-05-21T04:49:59.545Z,100768.81
2023-05-21T04:52:27.236Z,100780.00
2023-05-21T04:54:55.032Z,100780.41
2023-05-21T04:57:24.524Z,100785.06
2023-05-21T04:59:52.800Z,100765.94
2023-05-21T05:02:20.470Z,100783.72
2023-05-21T05:04:48.113Z,100772.66
2023-05-21T05:07:17.273Z,100785.03
2023-05-21T05:09:44.945Z,100784.25
2023-05-21T05:12:12.559Z,100764.91
2023-05-21T05:14:40.174Z,100763.25
2023-05-21T05:17:10.641Z,100767.94
2023-05-21T05:19:38.373Z,100776.47
2023-05-21T05:22:06.406Z,100765.63
2023-05-21T05:24:35.469Z,100774.88
2023-05-21T05:27:03.241Z,100785.47
2023-05-21T05:29:30.856Z,100770.31
2023-05-21T05:31:58.478Z,100761.09
2023-05-21T05:34:26.110Z,100767.19
2023-05-21T05:36:53.821Z,100760.44
2023-05-21T05:39:27.254Z,100768.97
2023-05-21T05:41:56.330Z,100762.94
2023-05-21T05:44:23.984Z,100756.34
2023-05-21T05:46:51.603Z,100761.19
2023-05-21T05:49:19.216Z,100743.44
2023-05-21T05:51:46.885Z,100759.66
2023-05-21T05:54:14.541Z,100740.53
2023-05-21T05:56:42.276Z,100746.94
2023-05-21T05:59:11.564Z,100735.69
2023-05-21T06:01:39.204Z,100743.44
2023-05-21T06:04:06.839Z,100737.59
2023-05-21T06:06:34.762Z,100756.56
2023-05-21T06:09:02.494Z,100741.28
2023-05-21T06:11:30.142Z,100750.00
2023-05-21T06:14:00.870Z,100740.38
2023-05-21T06:16:31.518Z,100747.94
2023-05-21T06:22:24.830Z,100733.97
2023-05-21T06:24:53.181Z,100735.44
2023-05-21T06:27:20.910Z,100747.56
2023-05-21T06:29:48.557Z,100749.69
2023-05-21T06:32:17.762Z,100757.78
2023-05-21T06:34:45.445Z,100753.06
2023-05-21T06:37:13.084Z,100732.13
2023-05-21T06:39:40.723Z,100732.31
2023-05-21T06:42:08.428Z,100739.16
2023-05-21T06:44:36.039Z,100734.34
2023-05-21T06:47:03.688Z,100741.25
2023-05-21T06:49:33.389Z,100748.00
2023-05-21T06:52:01.518Z,100750.72
2023-05-21T06:54:29.173Z,100737.69
2023-05-21T06:56:59.415Z,100733.88
2023-05-21T06:59:27.065Z,100731.59
2023-05-21T07:01:54.797Z,100749.31
2023-05-21T07:04:22.507Z,100729.75
2023-05-21T07:06:52.396Z,100736.25
2023-05-21T07:09:20.275Z,100727.50
2023-05-21T07:11:47.938Z,100729.78
2023-05-21T07:14:15.680Z,100732.78
2023-05-21T07:16:43.417Z,100737.53
2023-05-21T07:19:11.212Z,100751.56
2023-05-21T07:21:38.928Z,100753.44
2023-05-21T07:24:08.119Z,100741.28
2023-05-21T07:26:35.855Z,100754.63
2023-05-21T07:29:03.544Z,100743.19
2023-05-21T07:31:31.231Z,100769.13
2023-05-21T07:33:59.023Z,100761.66
2023-05-21T07:36:27.241Z,100753.88
2023-05-21T07:38:54.966Z,100744.56
2023-05-21T07:41:24.080Z,100735.78
2023-05-21T07:43:51.735Z,100741.44
2023-05-21T07:46:19.472Z,100754.97
2023-05-21T07:48:48.397Z,100740.94
2023-05-21T07:51:16.524Z,100740.63
2023-05-21T07:53:44.269Z,100755.81
2023-05-21T07:56:11.976Z,100742.00
2023-05-21T07:58:41.522Z,100734.66
2023-05-21T08:01:09.245Z,100742.25
2023-05-21T08:03:37.061Z,100757.47
2023-05-21T08:06:04.997Z,100751.22
2023-05-21T08:08:32.687Z,100751.13
2023-05-21T08:11:00.447Z,100731.94
2023-05-21T08:13:28.181Z,100746.09
2023-05-21T08:15:57.275Z,100763.41
2023-05-21T08:18:25.427Z,100737.00
2023-05-21T08:20:53.172Z,100743.09
2023-05-21T08:23:21.097Z,100736.44
2023-05-21T08:25:48.810Z,100739.44
2023-05-21T08:28:16.489Z,100741.28
2023-05-21T08:30:44.196Z,100747.19
2023-05-21T08:33:13.952Z,100752.50
2023-05-21T08:35:41.633Z,100739.50
2023-05-21T08:38:09.305Z,100753.75
2023-05-21T08:40:37.011Z,100754.41
2023-05-21T08:43:04.972Z,100750.94
2023-05-21T08:45:38.061Z,100742.72
2023-05-21T08:48:07.490Z,100735.09
2023-05-21T08:50:36.631Z,100734.66
2023-05-21T08:53:12.683Z,100727.53
2023-05-21T08:55:54.074Z,100744.69
2023-05-21T08:58:22.473Z,100734.78
2023-05-21T09:00:50.719Z,100731.53
2023-05-21T09:03:18.615Z,100738.25
2023-05-21T09:05:48.613Z,100719.91
2023-05-21T09:08:19.976Z,100731.31
2023-05-21T09:13:59.444Z,100742.88
2023-05-21T09:16:27.098Z,100719.72
2023-05-21T09:18:54.793Z,100720.56
2023-05-21T09:21:28.357Z,100733.53
2023-05-21T09:23:57.962Z,100716.50
2023-05-21T09:26:26.685Z,100732.22
2023-05-21T09:28:58.864Z,100717.09
2023-05-21T09:31:45.709Z,100737.91
2023-05-21T09:34:14.252Z,100728.34
2023-05-21T09:36:43.830Z,100727.69
2023-05-21T09:39:16.316Z,100731.28
2023-05-21T09:41:44.225Z,100727.06
2023-05-21T09:44:31.531Z,100729.91
2023-05-21T09:46:59.970Z,100717.47
2023-05-21T09:49:28.401Z,100731.06
2023-05-21T09:51:58.224Z,100710.84
2023-05-21T09:54:26.521Z,100723.81
2023-05-21T09:56:54.437Z,100712.25
2023-05-21T09:59:22.423Z,100702.94
2023-05-21T10:01:52.690Z,100716.25
2023-05-21T10:04:21.090Z,100701.50
2023-05-21T10:06:49.002Z,100701.00
2023-05-21T10:09:20.048Z,100718.38
2023-05-21T10:11:48.497Z,100709.84
2023-05-21T10:14:18.252Z,100712.97
2023-05-21T10:16:46.204Z,100700.47
2023-05-21T10:19:14.476Z,100711.78
2023-05-21T10:21:42.862Z,100689.97
2023-05-21T10:24:11.204Z,100700.75
2023-05-21T10:26:40.862Z,100697.06
2023-05-21T10:29:09.206Z,100696.88
2023-05-21T10:31:37.040Z,100683.91
2023-05-21T10:34:06.037Z,100699.19
2023-05-21T10:36:34.070Z,100684.38
2023-05-21T10:39:03.628Z,100664.28
2023-05-21T10:41:37.190Z,100683.69
2023-05-21T10:44:12.498Z,100670.28
2023-05-21T10:46:59.313Z,100662.38
2023-05-21T10:49:43.134Z,100674.09
2023-05-21T10:52:26.192Z,100662.78
2023-05-21T10:55:03.215Z,100655.03
2023-05-21T10:57:47.065Z,100655.09
2023-05-21T11:00:17.370Z,100671.28
2023-05-21T11:02:45.965Z,100663.28
2023-05-21T11:05:13.746Z,100658.34
2023-05-21T11:07:56.316Z,100668.19
2023-05-21T11:10:38.302Z,100663.34
2023-05-21T11:13:21.787Z,100660.41
2023-05-21T11:16:16.444Z,100651.59
2023-05-21T11:19:02.834Z,100641.00
2023-05-21T11:21:31.950Z,100642.56
2023-05-21T11:24:06.343Z,100632.16
2023-05-21T11:27:07.009Z,100660.53
2023-05-21T11:29:40.743Z,100649.78
2023-05-21T11:32:11.154Z,100656.38
2023-05-21T11:34:40.602Z,100653.19
2023-05-21T11:37:25.132Z,100652.50
2023-05-21T11:39:53.131Z,100649.72
2023-05-21T11:42:29.785Z,100648.41
2023-05-21T11:44:59.136Z,100637.47
2023-05-21T11:47:28.941Z,100641.94
2023-05-21T11:49:57.496Z,100642.47
2023-05-21T11:52:25.327Z,100644.44
2023-05-21T11:54:56.818Z,100651.34
2023-05-21T11:57:30.505Z,100650.63
2023-05-21T11:59:59.712Z,100644.81
2023-05-21T12:02:32.566Z,100645.69
2023-05-21T12:05:01.087Z,100634.66
2023-05-21T12:07:30.113Z,100648.69
2023-05-21T12:09:58.342Z,100657.97
2023-05-21T12:12:35.352Z,100651.28
2023-05-21T12:15:12.510Z,100653.75
2023-05-21T12:17:42.168Z,100656.25
2023-05-21T12:20:10.814Z,100636.44
2023-05-21T12:22:42.633Z,100641.56
2023-05-21T12:25:12.042Z,100647.69
2023-05-21T12:27:39.932Z,100638.72
2023-05-21T12:30:09.033Z,100640.59
2023-05-21T12:32:38.186Z,100634.28
2023-05-21T12:35:07.931Z,100654.09
2023-05-21T12:37:35.888Z,100640.09
2023-05-21T12:40:07.785Z,100650.19
2023-05-21T12:42:35.864Z,100653.06
2023-05-21T12:45:07.836Z,100663.66
2023-05-21T12:47:49.086Z,100652.66
2023-05-21T12:50:21.680Z,100653.31
2023-05-21T12:52:49.387Z,100661.69
2023-05-21T12:55:18.146Z,100656.72
2023-05-21T12:57:46.574Z,100643.56
2023-05-21T13:00:14.409Z,100650.56
2023-05-21T13:02:43.064Z,100652.44
2023-05-21T13:05:16.796Z,100626.53
2023-05-21T13:07:47.663Z,100632.47
2023-05-21T13:10:16.488Z,100640.34
2023-05-21T13:12:44.880Z,100638.09
2023-05-21T13:15:12.994Z,100637.31
2023-05-21T13:17:40.710Z,100629.53
2023-05-21T13:20:12.059Z,100640.94
2023-05-21T13:22:42.445Z,100634.91
2023-05-21T13:25:12.277Z,100624.09
2023-05-21T13:27:39.985Z,100619.06
2023-05-21T13:30:09.547Z,100615.03
2023-05-21T13:32:37.396Z,100624.84
2023-05-21T13:35:06.132Z,100629.22
2023-05-21T13:37:36.126Z,100628.25
2023-05-21T13:40:04.414Z,100619.78
2023-05-21T13:42:33.545Z,100625.53
2023-05-21T13:45:01.254Z,100623.22
2023-05-21T13:47:28.988Z,100616.22
2023-05-21T13:49:56.655Z,100621.16
2023-05-21T13:52:24.278Z,100617.50
2023-05-21T13:54:51.957Z,100611.06
2023-05-21T13:57:19.806Z,100611.66
2023-05-21T13:59:50.566Z,100604.53
2023-05-21T14:02:18.538Z,100604.50
2023-05-21T14:04:46.204Z,100598.22
2023-05-21T14:07:13.913Z,100602.44
2023-05-21T14:09:42.266Z,100585.28
2023-05-21T14:12:10.839Z,100598.53
2023-05-21T14:14:38.465Z,100592.13
2023-05-21T14:17:07.616Z,100599.53
2023-05-21T14:19:35.438Z,100591.41
2023-05-21T14:22:03.154Z,100594.13
2023-05-21T14:24:30.762Z,100590.09
2023-05-21T14:26:58.344Z,100576.03
2023-05-21T14:29:26.014Z,100582.16
2023-05-21T14:31:53.750Z,100566.88
2023-05-21T14:34:22.904Z,100579.91
2023-05-21T14:36:50.650Z,100580.16
2023-05-21T14:39:18.356Z,100584.28
2023-05-21T14:41:45.981Z,100560.81
2023-05-21T14:44:13.594Z,100552.38
2023-05-21T14:46:41.198Z,100555.16
2023-05-21T14:49:08.890Z,100557.34
2023-05-21T14:51:37.933Z,100573.94
2023-05-21T14:54:05.583Z,100556.19
2023-05-21T14:56:33.222Z,100561.97
2023-05-21T14:59:00.976Z,100547.03
2023-05-21T15:01:28.723Z,100568.06
2023-05-21T15:03:58.543Z,100550.53
2023-05-21T15:06:26.494Z,100550.28
2023-05-21T15:08:55.488Z,100554.22
2023-05-21T15:11:23.244Z,100560.47
2023-05-21T15:13:50.883Z,100563.19
2023-05-21T15:16:19.739Z,100553.28
2023-05-21T15:18:47.686Z,100555.50
2023-05-21T15:21:15.324Z,100556.38
2023-05-21T15:23:42.964Z,100565.59
2023-05-21T15:26:12.075Z,100567.47
2023-05-21T15:28:39.678Z,100549.53
2023-05-21T15:31:07.375Z,100571.03
2023-05-21T15:33:35.062Z,100571.13
2023-05-21T15:36:02.734Z,100552.25
2023-05-21T15:38:30.534Z,100571.03
2023-05-21T15:40:58.186Z,100568.28
2023-05-21T15:43:27.205Z,100562.25
2023-05-21T15:45:54.834Z,100578.72
2023-05-21T15:48:23.009Z,100576.78
2023-05-21T15:50:50.861Z,100582.59
2023-05-21T15:53:18.710Z,100557.66
2023-05-21T15:55:46.315Z,100573.50
2023-05-21T15:58:13.935Z,100556.78
2023-05-21T16:00:42.991Z,100563.97
2023-05-21T16:03:11.927Z,100568.94
2023-05-21T16:05:39.717Z,100552.31
2023-05-21T16:08:07.346Z,100545.66
2023-05-21T16:10:35.070Z,100552.19
2023-05-21T16:13:02.717Z,100547.41
2023-05-21T16:15:32.372Z,100547.78
2023-05-21T16:18:01.453Z,100560.34
2023-05-21T16:20:30.686Z,100543.66
2023-05-21T16:22:58.331Z,100541.00
2023-05-21T16:25:26.038Z,100561.22
2023-05-21T16:27:53.645Z,100542.06
2023-05-21T16:30:21.394Z,100525.72
2023-05-21T16:32:49.092Z,100523.41
2023-05-21T16:35:18.153Z,100530.56
2023-05-21T16:37:46.209Z,100540.91
2023-05-21T16:40:14.210Z,100523.72
2023-05-21T16:42:41.833Z,100526.19
2023-05-21T16:45:10.898Z,100527.31
2023-05-21T16:47:38.617Z,100540.69
2023-05-21T16:50:07.676Z,100527.66
2023-05-21T16:52:36.673Z,100515.81
2023-05-21T16:55:04.536Z,100525.59
2023-05-21T16:57:32.165Z,100519.88
2023-05-21T16:59:59.776Z,100512.91
2023-05-21T17:02:27.532Z,100511.47
2023-05-21T17:04:55.308Z,100510.03
2023-05-21T17:07:22.952Z,100505.22
2023-05-21T17:09:51.979Z,100493.44
2023-05-21T17:12:19.603Z,100500.78
2023-05-21T17:14:47.203Z,100503.56
2023-05-21T17:17:16.190Z,100498.97
2023-05-21T17:19:44.715Z,100513.72
2023-05-21T17:22:12.483Z,100517.56
2023-05-21T17:24:40.100Z,100497.19
2023-05-21T17:27:09.100Z,100499.28
2023-05-21T17:29:36.818Z,100507.38
2023-05-21T17:32:04.851Z,100495.22
2023-05-21T17:34:32.495Z,100506.13
2023-05-21T17:37:00.477Z,100494.84
2023-05-21T17:39:28.083Z,100507.75
2023-05-21T17:41:57.314Z,100513.63
2023-05-21T17:44:26.400Z,100518.28
2023-05-21T17:46:54.072Z,100504.91
2023-05-21T17:49:21.863Z,100503.16
2023-05-21T17:51:49.846Z,100510.91
2023-05-21T17:54:17.535Z,100511.78
2023-05-21T17:56:46.529Z,100505.78
2023-05-21T17:59:15.945Z,100494.13
2023-05-21T18:01:45.020Z,100515.09
2023-05-21T18:04:13.308Z,100518.25
2023-05-21T18:06:41.112Z,100501.16
2023-05-21T18:09:10.530Z,100515.22
2023-05-21T18:11:38.221Z,100511.56
2023-05-21T18:14:05.837Z,100492.84
2023-05-21T18:16:33.536Z,100489.72
2023-05-21T18:19:05.743Z,100494.72
2023-05-21T18:21:33.590Z,100518.06
2023-05-21T18:24:01.232Z,100511.72
2023-05-21T18:26:30.037Z,100507.69
2023-05-21T18:28:57.982Z,100503.75
2023-05-21T18:31:26.412Z,100501.69
2023-05-21T18:33:54.082Z,100503.34
2023-05-21T18:36:24.189Z,100510.38
2023-05-21T18:38:52.402Z,100505.97
2023-05-21T18:41:20.828Z,100501.00
2023-05-21T18:43:48.633Z,100503.84
2023-05-21T18:46:16.323Z,100509.22
2023-05-21T18:48:44.069Z,100499.16
2023-05-21T18:51:11.728Z,100495.13
2023-05-21T18:53:40.942Z,100484.16
2023-05-21T18:56:10.211Z,100481.59
2023-05-21T18:58:38.841Z,100493.75
2023-05-21T19:01:07.303Z,100485.13
2023-05-21T19:03:34.918Z,100493.91
2023-05-21T19:06:03.452Z,100506.50
2023-05-21T19:08:31.050Z,100499.41
2023-05-21T19:11:00.068Z,100498.72
2023-05-21T19:13:27.803Z,100499.91
2023-05-21T19:15:57.283Z,100506.16
2023-05-21T19:18:30.240Z,100506.16
2023-05-21T19:21:08.099Z,100519.97
2023-05-21T19:23:48.419Z,100515.97
2023-05-21T19:26:21.252Z,100518.94
2023-05-21T19:28:52.943Z,100499.75
2023-05-21T19:31:21.013Z,100517.72
2023-05-21T19:33:48.876Z,100514.94
2023-05-21T19:36:16.799Z,100521.38
2023-05-21T19:38:48.120Z,100524.88
2023-05-21T19:41:15.960Z,100521.72
2023-05-21T19:43:46.169Z,100536.59
2023-05-21T19:46:15.864Z,100538.41
2023-05-21T19:48:45.858Z,100528.81
2023-05-21T19:51:13.880Z,100543.88
2023-05-21T19:53:41.624Z,100548.91
2023-05-21T19:56:09.314Z,100574.72
2023-05-21T19:58:37.020Z,100604.69
2023-05-21T20:01:06.295Z,100629.69
2023-05-21T20:03:35.932Z,100624.50
2023-05-21T20:06:03.803Z,100643.47
2023-05-21T20:08:31.631Z,100646.44
2023-05-21T20:10:59.221Z,100634.00
2023-05-21T20:13:26.822Z,100637.56
2023-05-21T20:15:54.609Z,100642.63
2023-05-21T20:18:25.012Z,100645.81
2023-05-21T20:20:52.972Z,100638.88
2023-05-21T20:23:20.579Z,100644.00
2023-05-21T20:25:48.346Z,100644.84
2023-05-21T20:28:15.962Z,100638.66
2023-05-21T20:30:53.564Z,100631.28
2023-05-21T20:33:21.443Z,100603.72
2023-05-21T20:35:50.691Z,100609.44
2023-05-21T20:38:18.336Z,100600.91
2023-05-21T20:40:45.986Z,100605.06
2023-05-21T20:43:13.745Z,100618.03
2023-05-21T20:45:41.993Z,100598.72
2023-05-21T20:48:12.117Z,100584.84
2023-05-21T20:50:41.709Z,100580.63
2023-05-21T20:53:11.975Z,100570.78
2023-05-21T20:55:44.316Z,100589.63
2023-05-21T20:58:12.269Z,100580.25
2023-05-21T21:00:41.854Z,100573.28
2023-05-21T21:03:10.583Z,100555.06
2023-05-21T21:05:38.491Z,100537.50
2023-05-21T21:08:08.236Z,100547.34
2023-05-21T21:10:38.358Z,100529.56
2023-05-21T21:13:07.185Z,100533.56
2023-05-21T21:15:34.879Z,100514.25
2023-05-21T21:18:02.586Z,100528.50
2023-05-21T21:20:30.395Z,100534.00
2023-05-21T21:22:57.995Z,100539.41
2023-05-21T21:25:25.707Z,100531.97
2023-05-21T21:27:54.732Z,100540.78
2023-05-21T21:30:22.336Z,100530.56
2023-05-21T21:32:50.540Z,100532.72
2023-05-21T21:35:18.364Z,100533.69
2023-05-21T21:37:46.163Z,100566.84
2023-05-21T21:40:14.947Z,100557.13
2023-05-21T21:42:43.340Z,100564.09
2023-05-21T21:45:12.716Z,100572.88
2023-05-21T21:47:40.480Z,100577.19
2023-05-21T21:50:09.128Z,100586.75
2023-05-21T21:52:40.090Z,100594.22
2023-05-21T21:55:09.778Z,100590.28
2023-05-21T21:57:37.644Z,100630.47
2023-05-21T22:00:15.571Z,100606.66
2023-05-21T22:02:46.499Z,100590.38
2023-05-21T22:05:15.375Z,100559.19
2023-05-21T22:07:46.463Z,100557.44
2023-05-21T22:10:15.932Z,100550.78
2023-05-21T22:12:44.463Z,100537.19
2023-05-21T22:15:18.922Z,100559.63
2023-05-21T22:17:49.970Z,100555.44
2023-05-21T22:20:18.533Z,100565.44
2023-05-21T22:22:46.372Z,100566.00
2023-05-21T22:25:14.067Z,100564.84
2023-05-21T22:27:42.319Z,100544.28
2023-05-21T22:30:10.855Z,100538.56
2023-05-21T22:32:38.811Z,100533.09
2023-05-21T22:35:09.013Z,100544.22
2023-05-21T22:37:37.306Z,100532.69
2023-05-21T22:40:06.374Z,100520.84
2023-05-21T22:42:34.676Z,100506.88
2023-05-21T22:45:02.938Z,100516.34
2023-05-21T22:47:32.132Z,100499.03
2023-05-21T22:50:01.346Z,100495.16
2023-05-21T22:52:30.381Z,100470.03
2023-05-21T22:55:00.655Z,100476.59
2023-05-21T22:57:28.419Z,100484.09
2023-05-21T22:59:56.037Z,100484.22
2023-05-21T23:02:23.739Z,100469.94
2023-05-21T23:04:51.448Z,100473.94
2023-05-21T23:07:19.162Z,100471.22
2023-05-21T23:09:48.173Z,100477.47
2023-05-21T23:12:16.043Z,100478.09
2023-05-21T23:14:43.710Z,100482.38
2023-05-21T23:17:11.340Z,100479.91
2023-05-21T23:19:39.191Z,100493.59
2023-05-21T23:22:06.850Z,100488.59
2023-05-21T23:24:36.491Z,100491.56
2023-05-21T23:27:05.785Z,100500.94
2023-05-21T23:29:33.387Z,100498.38
2023-05-21T23:32:01.869Z,100494.69
2023-05-21T23:34:29.593Z,100493.91
2023-05-21T23:36:59.451Z,100503.31
2023-05-21T23:39:28.572Z,100489.09
2023-05-21T23:41:56.366Z,100493.72
2023-05-21T23:44:25.441Z,100480.13
2023-05-21T23:46:53.126Z,100497.09
2023-05-21T23:49:20.779Z,100480.09
2023-05-21T23:51:50.577Z,100488.44
2023-05-21T23:54:18.417Z,100499.50
2023-05-21T23:56:46.335Z,100494.22
2023-05-21T23:59:15.100Z,100488.97
